Latest Conditions
At L.F.Wade Int. Airport
Recorded at 10:55 am
Showers
Temp.: 
30°C/86°F
Humidity: 
73%
Wind: 
SE 7KT
or 8mph
UV Index: 
4
Island Observations
 
Observations
Monday, August 08, 2022

Observations are in local time and taken at least once an hour, or upon the start and end of specified events such as showers and thunderstorms.

Time Sky / Weather Wind Speed/Gusts Temp. R.H. Pressure
     knots (mph)  °C (°F)  %  mb / "Hg
 10:55 Few Clouds Showers SE 7/0 (8/0) 30(86) 73 1024 / 30.25
 09:55 Few Clouds Showers SE 5/0 (6/0) 29(84) 73 1024 / 30.25
 08:55 Few Clouds  SE 3/0 (3/0) 28(82) 81 1024 / 30.24
 07:55 Few Clouds  ESE 3/0 (3/0) 28(82) 83 1024 / 30.23
 06:55 Few Clouds  SSE 3/0 (3/0) 27(81) 84 1024 / 30.23
 05:55 Few Clouds  SE 5/0 (6/0) 27(81) 83 1023 / 30.22
 04:55 Few Clouds  SSE 4/0 (5/0) 27(81) 84 1023 / 30.22
 03:55 Few Clouds  SSE 4/0 (5/0) 27(81) 82 1024 / 30.23
 02:55 Few Clouds  SE 6/0 (7/0) 27(81) 83 1024 / 30.23
 01:55 Few Clouds  SE 6/0 (7/0) 28(82) 82 1024 / 30.24
 00:55 Few Clouds  SE 7/0 (8/0) 28(82) 84 1024 / 30.25
 23:55 Few Clouds  SE 6/0 (7/0) 28(82) 81 1025 / 30.27
 22:55 Few Clouds  ESE 7/0 (8/0) 28(82) 80 1025 / 30.27
 21:55 Few Clouds  SE 6/0 (7/0) 28(82) 79 1025 / 30.27
 20:55 Few Clouds Showers E 6/0 (7/0) 28(82) 78 1025 / 30.26
 19:55 Few Clouds  SE 6/0 (7/0) 28(83) 77 1024 / 30.25
 18:55 Few Clouds  SE 6/0 (7/0) 29(84) 73 1024 / 30.24
 17:55 Few Clouds  SE 6/0 (7/0) 30(85) 69 1024 / 30.25
 16:55 Few Clouds  ESE 7/0 (8/0) 30(86) 71 1024 / 30.25
 15:55 Few Clouds  SE 9/0 (10/0) 30(87) 69 1025 / 30.26
 14:55 Few Clouds  SE 9/0 (10/0) 31(87) 68 1025 / 30.26
 13:55 Few Clouds  SE 9/0 (10/0) 31(87) 68 1025 / 30.28
 12:55 Few Clouds  SE 9/0 (10/0) 30(87) 69 1026 / 30.29
 11:55 Few Clouds  SE 11/0 (13/0) 30(86) 73 1026 / 30.30
 10:55 Few Clouds  SE 11/0 (13/0) 30(86) 69 1026 / 30.30
 09:55 Few Clouds Showers SE 10/0 (12/0) 30(85) 73 1026 / 30.29
 08:55 Partly Cloudy Showers ESE 9/0 (10/0) 29(84) 76 1026 / 30.30
 07:55 Partly Cloudy Showers ESE 10/0 (12/0) 28(82) 78 1025 / 30.28
 06:55 Partly Cloudy  ESE 9/0 (10/0) 27(81) 83 1025 / 30.28
 05:55 Mostly Cloudy Showers ESE 7/0 (8/0) 27(81) 84 1025 / 30.26
 04:55 Mostly Cloudy Showers SE 8/0 (9/0) 27(81) 81 1025 / 30.26
 03:55 Mostly Cloudy Showers ESE 11/0 (13/0) 26(79) 78 1025 / 30.26
 03:37 Mostly Cloudy Showers SE 13/0 (15/0) 27(80) 85 1024 / 30.25
 02:55 Mostly Cloudy  ESE 11/0 (13/0) 27(81) 84 1025 / 30.26
 02:12 Mostly Cloudy Showers SE 11/0 (13/0) 27(81) 85 1025 / 30.27
 01:55 Mostly Cloudy Showers ESE 11/0 (13/0) 28(82) 86 1025 / 30.27
 00:55 Partly Cloudy  E 11/0 (13/0) 28(82) 83 1026 / 30.29
 23:55 Partly Cloudy  E 11/0 (13/0) 28(82) 74 1026 / 30.29
 22:55 Mostly Cloudy  E 12/0 (14/0) 28(82) 78 1026 / 30.29
 21:55 Mostly Cloudy  E 11/0 (13/0) 28(82) 77 1026 / 30.29
 20:55 Mostly Cloudy  E 10/0 (12/0) 28(82) 80 1025 / 30.27
 19:55 Mostly Cloudy  E 12/0 (14/0) 28(83) 78 1025 / 30.26
 18:55 Mostly Cloudy  E 12/0 (14/0) 29(85) 74 1024 / 30.25
 17:55 Mostly Cloudy  E 13/0 (15/0) 30(85) 73 1024 / 30.25
 16:55 Mostly Cloudy  ENE 13/0 (15/0) 31(87) 71 1025 / 30.26
 15:55 Mostly Cloudy  E 14/0 (16/0) 31(88) 69 1025 / 30.26
 14:55 Mostly Cloudy  E 15/0 (17/0) 32(89) 66 1025 / 30.27
 13:55 Partly Cloudy  E 13/0 (15/0) 31(87) 69 1025 / 30.28
 12:55 Partly Cloudy  E 16/0 (18/0) 31(89) 69 1025 / 30.28
 11:55 Partly Cloudy  E 15/0 (17/0) 31(88) 71 1026 / 30.29
 10:55 Mostly Cloudy  ENE 13/0 (15/0) 30(85) 78 1026 / 30.30
 09:55 Partly Cloudy  ENE 12/0 (14/0) 30(85) 74 1026 / 30.29
 08:55 Partly Cloudy  ENE 11/0 (13/0) 29(84) 77 1026 / 30.29
 07:55 Partly Cloudy  ENE 9/0 (10/0) 28(82) 81 1026 / 30.29
 06:55 Few Clouds  E 9/0 (10/0) 28(82) 83 1025 / 30.27
 05:55 Partly Cloudy  E 9/0 (10/0) 28(82) 82 1025 / 30.26
 04:55 Few Clouds  E 9/0 (10/0) 27(81) 84 1024 / 30.25
 03:55 Few Clouds  E 9/0 (10/0) 28(82) 82 1024 / 30.25
 02:55 Few Clouds  E 9/0 (10/0) 27(81) 81 1024 / 30.25
 01:55 Partly Cloudy  E 9/0 (10/0) 27(81) 82 1024 / 30.25
 00:55 Partly Cloudy  E 8/0 (9/0) 28(82) 82 1025 / 30.26
 23:55 Partly Cloudy  E 12/0 (14/0) 28(82) 84 1025 / 30.26
 22:55 Mostly Cloudy  E 8/0 (9/0) 28(82) 82 1025 / 30.27
 21:55 Partly Cloudy  E 9/0 (10/0) 28(82) 81 1025 / 30.26
 20:55 Partly Cloudy  ENE 9/0 (10/0) 28(82) 80 1025 / 30.26
 19:55 Partly Cloudy  ENE 8/0 (9/0) 28(83) 77 1024 / 30.25
 18:55 Partly Cloudy  ENE 7/0 (8/0) 28(83) 78 1025 / 30.26
 17:55 Few Clouds  ENE 8/0 (9/0) 30(85) 72 1024 / 30.25
 16:55 Partly Cloudy Showers ENE 8/0 (9/0) 30(86) 71 1025 / 30.26
 15:55 Partly Cloudy Showers NNE 6/0 (7/0) 30(85) 72 1025 / 30.27
 14:55 Mostly Cloudy  ENE 6/0 (7/0) 29(84) 74 1025 / 30.28
 13:55 Partly Cloudy  SE 6/0 (7/0) 30(86) 69 1025 / 30.28
 12:55 Mostly Cloudy  SE 6/0 (7/0) 30(86) 70 1026 / 30.29
 11:55 Mostly Cloudy  SE 7/0 (8/0) 31(88) 65 1026 / 30.29
 10:55 Mostly Cloudy  ESE 7/0 (8/0) 30(85) 70 1025 / 30.27
 09:55 Mostly Cloudy  ESE 8/0 (9/0) 29(84) 73 1025 / 30.26
 08:55 Mostly Cloudy  E 7/0 (8/0) 28(82) 78 1025 / 30.26
 07:55 Mostly Cloudy  E 5/0 (6/0) 28(82) 76 1025 / 30.26
 06:55 Few Clouds  ENE 3/0 (3/0) 26(79) 83 1024 / 30.25
 05:55 Few Clouds  ENE 4/0 (5/0) 26(79) 82 1024 / 30.25
 04:55 Few Clouds  ESE 4/0 (5/0) 27(80) 81 1024 / 30.24
 03:55 Few Clouds  SE 5/0 (6/0) 27(80) 81 1024 / 30.23
 02:55 Few Clouds  SE 7/0 (8/0) 27(81) 83 1024 / 30.23
 01:55 Few Clouds  SE 6/0 (7/0) 27(81) 81 1024 / 30.25
 00:55 Few Clouds  SE 8/0 (9/0) 27(80) 83 1024 / 30.25
 23:55 Partly Cloudy  ESE 9/0 (10/0) 27(81) 78 1024 / 30.25
 22:55 Mostly Cloudy  E 7/0 (8/0) 27(80) 80 1024 / 30.25
 21:55 Mostly Cloudy  SE 9/0 (10/0) 27(81) 83 1024 / 30.25
 20:55 Mostly Cloudy  ESE 5/0 (6/0) 27(81) 85 1024 / 30.24
 19:55 Mostly Cloudy  SE 6/0 (7/0) 27(81) 82 1024 / 30.23
 18:55 Mostly Cloudy  ESE 7/0 (8/0) 29(83) 74 1024 / 30.24
 17:55 Mostly Cloudy  SE 5/0 (6/0) 28(82) 76 1023 / 30.22
 16:55 Mostly Cloudy  ESE 9/0 (10/0) 29(83) 74 1023 / 30.21
 15:55 Mostly Cloudy  ENE 10/0 (12/0) 28(83) 73 1023 / 30.22
 15:25 Mostly Cloudy  E 12/0 (14/0) 29(84) 69 1024 / 30.24
 14:55 Mostly Cloudy  SE 7/0 (8/0) 30(85) 65 1024 / 30.25
 13:55 Mostly Cloudy  SSE 4/0 (5/0) 30(86) 62 1024 / 30.25
 12:55 Mostly Cloudy  NE 5/0 (6/0) 29(83) 69 1024 / 30.25
 11:55 Mostly Cloudy Showers W 6/0 (7/0) 26(80) 81 1025 / 30.28
 11:33 Mostly Cloudy Showers WSW 7/0 (8/0) 26(78) 86 1025 / 30.27
Island AWOS